»·PEaware :: FDX4214 KDEN-KLAX

FDX4214 :: KDEN-KLAX

FLIGHT INFORMATION

Flight Status: Arrived
Operator:
Federal Express
More flights by this operator :: More flights under this callsign
Pilot: Anonymous 12254 (12254)
Aircraft: BOEING 767-300
(B763)
More flights by this aircraft type
Origin: KDEN Denver Intl
United States
Destination: KLAX Los Angeles Intl
United States
More flights between these airports :: More routes between these airports
Route: BAYLR6 TEHRU JASSE Q90 DNERO ANJLL4
File this flight plan on PilotEdge
Remarks:
Altitude:
(Current/Filed)
32,000ft
Speed:
(Current/Filed)
450kts
Departed: 13-Aug-20 01:43 PM
Arrived: 13-Aug-20 03:39 PM
Distance/Time
Traveled:
747nm/1:55
Distance/Time
To Go:
Arrived

Flight Plot

Page will automatically refresh every two minutes.

Flight plan parsing failed; only flown route is shown


Map Options




Map Legend


Flown Route
Filed Route
Departure Airport
Arrival Airport
Navaid (VOR, NDB)
Fix

Horizontal Profiles

Position Reports

Time Latitude Longitude Heading Altitude Ground
Speed
13-Aug-20 13:41 39.776688 -104.903842 248 10193ft 298kts
13-Aug-20 13:43 39.741387 -105.047967 248 13152ft 338kts
13-Aug-20 13:44 39.704040 -105.162330 248 16428ft 349kts
13-Aug-20 13:45 39.664587 -105.282310 248 18572ft 380kts
13-Aug-20 13:46 39.624444 -105.404100 248 21268ft 368kts
13-Aug-20 13:47 39.582739 -105.530161 248 23483ft 393kts
13-Aug-20 13:48 39.540970 -105.662621 251 25723ft 403kts
13-Aug-20 13:49 39.503159 -105.799523 251 26572ft 404kts
13-Aug-20 13:50 39.464689 -105.937717 252 28042ft 411kts
13-Aug-20 13:51 39.425459 -106.077818 252 29630ft 420kts
13-Aug-20 13:52 39.385282 -106.220494 252 31172ft 427kts
13-Aug-20 13:53 39.344559 -106.364230 252 32968ft 417kts
13-Aug-20 13:54 39.303785 -106.507522 252 32884ft 429kts
13-Aug-20 13:55 39.263822 -106.647015 252 32677ft 400kts
13-Aug-20 13:56 39.210162 -106.775580 238 32542ft 416kts
13-Aug-20 13:57 39.144369 -106.890906 237 32320ft 398kts
13-Aug-20 13:57 39.089312 -106.986110 237 32322ft 395kts
13-Aug-20 13:59 39.012439 -107.118345 237 32273ft 396kts
13-Aug-20 14:00 38.946253 -107.231733 236 32241ft 398kts
13-Aug-20 14:00 38.890844 -107.326352 236 32214ft 400kts
13-Aug-20 14:01 38.823876 -107.440324 236 32186ft 400kts
13-Aug-20 14:02 38.756610 -107.554409 236 32140ft 401kts
13-Aug-20 14:03 38.689652 -107.667573 236 32108ft 401kts
13-Aug-20 14:04 38.622234 -107.781123 236 32129ft 401kts
13-Aug-20 14:05 38.555056 -107.893861 236 32137ft 401kts
13-Aug-20 14:06 38.486947 -108.007775 236 32137ft 401kts
13-Aug-20 14:07 38.419241 -108.120608 236 32124ft 401kts
13-Aug-20 14:08 38.351160 -108.233684 236 32113ft 402kts
13-Aug-20 14:09 38.283253 -108.346073 236 32100ft 402kts
13-Aug-20 14:10 38.214851 -108.458900 236 32108ft 401kts
13-Aug-20 14:11 38.146758 -108.570824 236 32117ft 401kts
13-Aug-20 14:12 38.078948 -108.681896 235 32116ft 402kts
13-Aug-20 14:13 38.010294 -108.793975 235 32143ft 402kts
13-Aug-20 14:14 37.941674 -108.905618 235 32158ft 401kts
13-Aug-20 14:15 37.872685 -109.017473 235 32171ft 400kts
13-Aug-20 14:16 37.804521 -109.127622 235 32166ft 396kts
13-Aug-20 14:17 37.736970 -109.236416 235 32154ft 393kts
13-Aug-20 14:18 37.669269 -109.345092 235 32141ft 394kts
13-Aug-20 14:19 37.601373 -109.453723 235 32124ft 394kts
13-Aug-20 14:20 37.533276 -109.562318 235 32103ft 394kts
13-Aug-20 14:21 37.465420 -109.670173 234 32086ft 394kts
13-Aug-20 14:22 37.397347 -109.778022 234 32127ft 394kts
13-Aug-20 14:23 37.329051 -109.885874 234 32148ft 394kts
13-Aug-20 14:24 37.260355 -109.994012 234 32159ft 396kts
13-Aug-20 14:25 37.191422 -110.102157 234 32153ft 396kts
13-Aug-20 14:26 37.122592 -110.209795 234 32140ft 396kts
13-Aug-20 14:27 37.052840 -110.318543 233 32119ft 402kts
13-Aug-20 14:28 36.982087 -110.428472 233 32098ft 407kts
13-Aug-20 14:29 36.910487 -110.539331 233 32072ft 409kts
13-Aug-20 14:30 36.838724 -110.650076 232 32044ft 410kts
13-Aug-20 14:31 36.766974 -110.760454 232 32065ft 410kts
13-Aug-20 14:32 36.695008 -110.870798 232 32064ft 410kts
13-Aug-20 14:33 36.623215 -110.980521 232 32066ft 408kts
13-Aug-20 14:34 36.551699 -111.089465 232 32055ft 406kts
13-Aug-20 14:35 36.480434 -111.197633 231 32044ft 405kts
13-Aug-20 14:36 36.408826 -111.306033 231 32037ft 405kts
13-Aug-20 14:37 36.337098 -111.414247 231 32025ft 405kts
13-Aug-20 14:38 36.265399 -111.522073 231 31937ft 406kts
13-Aug-20 14:39 36.193257 -111.630217 231 31771ft 407kts
13-Aug-20 14:40 36.121069 -111.738079 231 31691ft 407kts
13-Aug-20 14:41 36.057792 -111.852940 248 31668ft 405kts
13-Aug-20 14:42 36.016687 -111.982854 248 31969ft 405kts
13-Aug-20 14:43 35.975180 -112.112466 248 32197ft 404kts
13-Aug-20 14:44 35.933745 -112.241187 248 32366ft 403kts
13-Aug-20 14:46 35.854642 -112.485341 248 32097ft 404kts
13-Aug-20 14:47 35.812850 -112.613530 248 31983ft 405kts
13-Aug-20 14:48 35.770629 -112.742488 247 31977ft 404kts
13-Aug-20 14:49 35.728443 -112.870790 247 32048ft 405kts
13-Aug-20 14:50 35.686050 -112.999159 247 32102ft 405kts
13-Aug-20 14:51 35.643346 -113.127910 247 32132ft 405kts
13-Aug-20 14:52 35.600692 -113.255965 247 32125ft 406kts
13-Aug-20 14:53 35.557798 -113.384198 247 32098ft 406kts
13-Aug-20 14:54 35.514604 -113.512781 247 32070ft 406kts
13-Aug-20 14:55 35.471359 -113.640977 247 32044ft 406kts
13-Aug-20 14:56 35.428125 -113.768603 246 31929ft 405kts
13-Aug-20 14:57 35.384887 -113.895718 246 31639ft 402kts
13-Aug-20 14:58 35.341853 -114.021699 246 31589ft 402kts
13-Aug-20 15:02 35.167367 -114.527312 246 31571ft 403kts
13-Aug-20 15:03 35.123480 -114.653198 246 31429ft 403kts
13-Aug-20 15:04 35.079322 -114.779337 246 31327ft 402kts
13-Aug-20 15:05 35.034927 -114.904489 243 31396ft 402kts
13-Aug-20 15:06 34.982703 -115.026071 241 31667ft 407kts
13-Aug-20 15:07 34.929305 -115.149168 241 31725ft 412kts
13-Aug-20 15:08 34.875746 -115.272091 240 31324ft 411kts
13-Aug-20 15:09 34.821960 -115.395051 240 30591ft 409kts
13-Aug-20 15:10 34.771979 -115.518299 244 29574ft 404kts
13-Aug-20 15:11 34.725973 -115.643409 244 28701ft 407kts
13-Aug-20 15:12 34.679925 -115.768071 243 28122ft 403kts
13-Aug-20 15:13 34.649118 -115.851183 243 27782ft 402kts
13-Aug-20 15:14 34.588511 -116.015339 244 27098ft 399kts
13-Aug-20 15:15 34.543098 -116.138130 244 26543ft 396kts
13-Aug-20 15:16 34.497883 -116.259912 243 26080ft 396kts
13-Aug-20 15:17 34.452834 -116.380767 244 25446ft 392kts
13-Aug-20 15:18 34.407434 -116.500194 241 24953ft 389kts
13-Aug-20 15:19 34.359260 -116.616972 242 24575ft 388kts
13-Aug-20 15:20 34.311552 -116.734063 242 23928ft 385kts
13-Aug-20 15:21 34.264998 -116.849680 242 23147ft 380kts
13-Aug-20 15:22 34.218852 -116.963888 242 22030ft 375kts
13-Aug-20 15:23 34.184399 -117.082063 249 20400ft 370kts
13-Aug-20 15:24 34.152396 -117.199421 249 18584ft 363kts
13-Aug-20 15:25 34.120900 -117.313772 249 16628ft 355kts
13-Aug-20 15:26 34.091235 -117.426388 251 14672ft 349kts
13-Aug-20 15:27 34.060130 -117.534904 245 12840ft 339kts
13-Aug-20 15:28 34.024284 -117.634463 245 12415ft 319kts
13-Aug-20 15:29 34.001314 -117.736127 262 11669ft 311kts
13-Aug-20 15:30 33.992093 -117.836739 261 10527ft 297kts
13-Aug-20 15:31 33.982250 -117.936510 262 8611ft 311kts
13-Aug-20 15:32 33.971726 -118.042615 262 6088ft 329kts
13-Aug-20 15:33 33.961755 -118.142882 263 4101ft 267kts
13-Aug-20 15:34 33.952710 -118.229203 262 2942ft 227kts
13-Aug-20 15:35 33.945887 -118.290027 263 1807ft 163kts
13-Aug-20 15:37 33.941851 -118.338497 263 825ft 138kts
13-Aug-20 15:38 33.937390 -118.382810 261 139ft 132kts
13-Aug-20 15:39 33.934519 -118.401983 180 123ft 0kts
13-Aug-20 15:40 33.934553 -118.398190 82 116ft 42kts
13-Aug-20 15:41 33.934055 -118.391593 179 110ft 6kts

Navigation Log

Ident Type
Flight plan parsing failed, navigation log unavailable